Time;durP1;ratioP1;P1;durP2;ratioP2;P2;SDS_P1;SDS_P2;PMS_P1;PMS_P2;Temp;Humidity;BMP_temperature;BMP_pressure;BME280_temperature;BME280_humidity;BME280_pressure;Samples;Min_cycle;Max_cycle;Signal;HPM_P1;HPM_P2
2022/02/25 00:02:28;;;;;;;1.33;0.60;;;5.60;91.80;;;;;;6158597;28;20043;-85
2022/02/25 00:05:31;;;;;;;3.33;0.68;;;5.60;91.90;;;;;;6157529;29;20047;-84
2022/02/25 00:08:33;;;;;;;2.03;0.50;;;5.50;91.60;;;;;;6159732;28;20079;-85
2022/02/25 00:11:36;;;;;;;0.98;0.40;;;5.50;91.50;;;;;;6176969;28;20051;-85
2022/02/25 00:14:37;;;;;;;3.13;0.60;;;5.40;91.20;;;;;;6170754;28;20665;-84
2022/02/25 00:17:39;;;;;;;5.13;0.82;;;5.40;90.90;;;;;;6164990;28;20083;-85
2022/02/25 00:20:42;;;;;;;4.97;0.95;;;5.40;90.70;;;;;;6163579;28;20071;-85
2022/02/25 00:23:44;;;;;;;1.30;0.40;;;5.30;90.70;;;;;;6161754;28;20057;-85
2022/02/25 00:26:46;;;;;;;4.43;0.80;;;5.30;90.70;;;;;;6160453;28;20051;-84
2022/02/25 00:29:48;;;;;;;4.93;0.80;;;5.20;90.90;;;;;;6160342;28;20058;-86
2022/02/25 00:32:49;;;;;;;1.17;0.77;;;5.20;90.80;;;;;;6160863;28;20048;-84
2022/02/25 00:35:53;;;;;;;4.60;0.88;;;5.10;91.00;;;;;;6160069;28;20043;-83
2022/02/25 00:38:55;;;;;;;1.50;0.60;;;5.10;90.60;;;;;;6159984;28;20194;-85
2022/02/25 00:41:57;;;;;;;2.17;0.90;;;5.10;90.40;;;;;;6160845;28;20047;-85
2022/02/25 00:44:58;;;;;;;4.90;1.08;;;5.00;90.10;;;;;;6160263;29;20051;-84
2022/02/25 00:48:00;;;;;;;0.77;0.30;;;5.00;89.70;;;;;;6159987;28;20059;-84
2022/02/25 00:51:04;;;;;;;1.17;0.30;;;4.90;89.20;;;;;;6157691;28;20130;-85
2022/02/25 00:54:06;;;;;;;1.50;0.45;;;4.90;90.00;;;;;;6159763;28;20138;-84
2022/02/25 00:57:08;;;;;;;5.03;0.65;;;4.80;90.10;;;;;;6159655;28;20147;-84
2022/02/25 01:00:14;;;;;;;2.05;0.47;;;4.70;90.00;;;;;;6160577;28;20043;-84
2022/02/25 01:03:16;;;;;;;0.80;0.40;;;4.70;89.60;;;;;;6159262;28;20137;-83
2022/02/25 01:06:19;;;;;;;3.50;0.80;;;4.60;89.70;;;;;;6159651;28;20049;-84
2022/02/25 01:09:21;;;;;;;1.33;0.32;;;4.60;89.80;;;;;;6159959;29;20130;-84
2022/02/25 01:12:22;;;;;;;3.55;0.60;;;4.50;89.10;;;;;;6168300;28;20047;-86
2022/02/25 01:15:24;;;;;;;0.65;0.30;;;4.50;89.60;;;;;;6169020;28;20069;-84
2022/02/25 01:18:26;;;;;;;1.35;0.22;;;4.50;90.00;;;;;;6170842;28;20585;-82
2022/02/25 01:21:29;;;;;;;5.30;1.15;;;4.40;90.00;;;;;;6171515;28;20079;-85
2022/02/25 01:24:31;;;;;;;2.30;0.50;;;4.40;90.10;;;;;;6171593;28;20035;-86
2022/02/25 01:27:33;;;;;;;3.40;0.57;;;4.40;90.40;;;;;;6168729;28;20067;-85
2022/02/25 01:30:35;;;;;;;4.22;0.80;;;4.40;90.40;;;;;;6171156;28;20107;-83
2022/02/25 01:33:36;;;;;;;4.93;0.93;;;4.30;90.40;;;;;;6171851;28;20070;-83
2022/02/25 01:36:40;;;;;;;4.50;0.50;;;4.30;90.70;;;;;;6173538;28;20073;-84
2022/02/25 01:39:41;;;;;;;5.82;0.60;;;4.30;90.60;;;;;;6173075;28;20047;-84
2022/02/25 01:42:45;;;;;;;4.90;0.45;;;4.20;90.60;;;;;;6174866;28;20067;-84
2022/02/25 01:45:47;;;;;;;0.88;0.22;;;4.20;90.70;;;;;;6175579;28;20051;-84
2022/02/25 01:48:49;;;;;;;2.40;0.43;;;4.20;90.90;;;;;;6174626;28;20107;-85
2022/02/25 01:51:54;;;;;;;2.10;0.50;;;4.10;91.00;;;;;;6165026;28;20049;-85
2022/02/25 01:54:56;;;;;;;2.90;0.75;;;4.10;91.00;;;;;;6161074;28;20051;-84
2022/02/25 01:57:58;;;;;;;3.33;0.73;;;4.10;91.10;;;;;;6160316;28;20048;-85
2022/02/25 02:01:00;;;;;;;1.45;0.35;;;4.00;91.20;;;;;;6159478;28;20062;-84
2022/02/25 02:04:02;;;;;;;2.35;0.20;;;4.00;91.10;;;;;;6191383;23;20191;-81
2022/02/25 02:07:06;;;;;;;1.90;0.20;;;4.00;91.20;;;;;;6187165;28;20396;-82
2022/02/25 02:10:08;;;;;;;4.18;0.50;;;4.00;91.40;;;;;;6188815;28;20074;-80
2022/02/25 02:13:12;;;;;;;4.18;0.82;;;4.00;91.60;;;;;;6188997;28;20058;-81
2022/02/25 02:16:14;;;;;;;3.60;0.80;;;4.00;91.40;;;;;;6189651;28;20105;-83
2022/02/25 02:19:17;;;;;;;2.20;0.98;;;3.90;91.50;;;;;;6190672;28;20574;-82
2022/02/25 02:22:23;;;;;;;5.30;0.40;;;3.90;91.70;;;;;;6189575;28;20468;-83
2022/02/25 02:25:25;;;;;;;5.85;1.05;;;3.80;91.70;;;;;;6189826;28;20050;-83
2022/02/25 02:28:27;;;;;;;7.30;0.95;;;3.80;91.90;;;;;;6190303;28;20070;-83
2022/02/25 02:31:29;;;;;;;7.13;2.42;;;3.70;92.10;;;;;;6190248;28;20437;-81
2022/02/25 02:34:31;;;;;;;5.05;0.68;;;3.70;92.10;;;;;;6189008;28;20130;-82
2022/02/25 02:37:34;;;;;;;4.72;0.73;;;3.70;92.10;;;;;;6190241;28;20138;-82
2022/02/25 02:40:35;;;;;;;2.58;0.63;;;3.60;92.10;;;;;;6189759;28;20058;-82
2022/02/25 02:43:37;;;;;;;1.88;0.55;;;3.50;92.10;;;;;;6189633;28;20051;-82
2022/02/25 02:46:40;;;;;;;4.95;1.08;;;3.50;92.30;;;;;;6189925;28;20050;-82
2022/02/25 02:49:42;;;;;;;11.15;0.77;;;3.50;92.40;;;;;;6189059;28;20428;-80
2022/02/25 02:52:46;;;;;;;6.95;0.68;;;3.40;92.30;;;;;;6186524;28;20114;-81
2022/02/25 02:55:47;;;;;;;4.10;0.70;;;3.40;92.40;;;;;;6189991;28;20051;-81
2022/02/25 02:58:55;;;;;;;7.00;0.77;;;3.40;92.30;;;;;;6191730;28;20066;-82
2022/02/25 03:01:57;;;;;;;13.75;1.05;;;3.50;92.50;;;;;;6188982;28;20094;-82
2022/02/25 03:04:59;;;;;;;5.20;0.93;;;3.40;92.50;;;;;;6188451;28;20050;-82
2022/02/25 03:08:02;;;;;;;3.50;0.82;;;3.40;92.40;;;;;;6188861;28;20058;-83
2022/02/25 03:11:04;;;;;;;7.78;0.80;;;3.40;92.60;;;;;;6189727;28;20107;-82
2022/02/25 03:14:06;;;;;;;7.82;1.13;;;3.40;92.50;;;;;;6192689;28;20054;-82
2022/02/25 03:17:11;;;;;;;7.78;2.95;;;3.40;92.60;;;;;;6193630;28;20102;-82
2022/02/25 03:20:13;;;;;;;11.93;1.00;;;3.40;92.60;;;;;;6193159;28;20186;-82
2022/02/25 03:23:16;;;;;;;2.30;0.90;;;3.50;92.60;;;;;;6193285;28;20086;-81
2022/02/25 03:26:18;;;;;;;2.03;0.50;;;3.50;92.60;;;;;;6192178;28;20489;-84
2022/02/25 03:29:20;;;;;;;5.10;0.50;;;3.50;92.50;;;;;;6193686;28;20519;-82
2022/02/25 03:32:22;;;;;;;11.38;1.55;;;3.50;92.60;;;;;;6192856;28;20046;-82
2022/02/25 03:35:24;;;;;;;8.27;1.10;;;3.50;92.60;;;;;;6192793;28;20618;-82
2022/02/25 03:38:29;;;;;;;5.95;1.55;;;3.50;92.50;;;;;;6192395;28;20101;-81
2022/02/25 03:41:30;;;;;;;11.40;0.98;;;3.50;92.50;;;;;;6192674;28;20046;-83
2022/02/25 03:44:33;;;;;;;13.40;1.30;;;3.60;92.40;;;;;;6192142;28;20137;-82
2022/02/25 03:47:35;;;;;;;8.93;0.93;;;3.60;92.40;;;;;;6192655;28;20114;-82
2022/02/25 03:50:38;;;;;;;2.88;0.52;;;3.60;92.30;;;;;;6193057;28;20085;-82
2022/02/25 03:53:42;;;;;;;8.13;1.20;;;3.60;92.30;;;;;;6193863;28;20051;-82
2022/02/25 03:56:43;;;;;;;1.80;0.88;;;3.60;92.50;;;;;;6192558;28;20054;-83
2022/02/25 03:59:45;;;;;;;6.63;1.10;;;3.60;92.30;;;;;;6193321;28;20057;-81
2022/02/25 04:02:47;;;;;;;4.13;0.77;;;3.60;92.30;;;;;;6192270;28;20067;-81
2022/02/25 04:05:49;;;;;;;5.80;1.13;;;3.70;92.50;;;;;;6192595;28;20158;-81
2022/02/25 04:08:52;;;;;;;8.15;1.95;;;3.60;92.60;;;;;;6193534;28;20102;-80
2022/02/25 04:11:54;;;;;;;5.22;1.20;;;3.60;92.50;;;;;;6193255;28;20050;-82
2022/02/25 04:14:56;;;;;;;4.70;1.13;;;3.60;92.60;;;;;;6191683;28;20148;-81
2022/02/25 04:17:58;;;;;;;7.55;1.08;;;3.60;92.50;;;;;;6191621;28;20494;-83
2022/02/25 04:21:00;;;;;;;4.15;1.00;;;3.60;92.50;;;;;;6192345;28;20074;-82
2022/02/25 04:24:03;;;;;;;1.95;0.77;;;3.70;92.70;;;;;;6192080;28;20110;-83
2022/02/25 04:27:06;;;;;;;8.05;1.23;;;3.70;92.60;;;;;;6191433;28;20110;-82
2022/02/25 04:30:08;;;;;;;6.30;1.13;;;3.70;92.40;;;;;;6193586;28;20053;-82
2022/02/25 04:33:10;;;;;;;6.60;1.10;;;3.70;92.20;;;;;;6191280;28;20077;-82
2022/02/25 04:36:13;;;;;;;9.35;1.33;;;3.70;92.40;;;;;;6191640;28;20134;-83
2022/02/25 04:39:16;;;;;;;3.67;0.98;;;3.70;92.30;;;;;;6191838;28;20149;-83
2022/02/25 04:42:17;;;;;;;2.95;1.02;;;3.70;92.20;;;;;;6190131;28;20049;-83
2022/02/25 04:45:20;;;;;;;16.30;1.25;;;3.70;92.30;;;;;;6191785;28;20137;-83
2022/02/25 04:48:21;;;;;;;6.97;1.02;;;3.70;92.30;;;;;;6191175;28;20138;-82
2022/02/25 04:51:23;;;;;;;10.52;1.73;;;3.70;92.20;;;;;;6190883;28;20105;-82
2022/02/25 04:54:26;;;;;;;5.60;1.10;;;3.80;92.30;;;;;;6190172;28;20090;-84
2022/02/25 04:57:28;;;;;;;7.40;1.20;;;3.80;92.20;;;;;;6192935;28;20138;-83
2022/02/25 05:00:30;;;;;;;8.35;1.20;;;3.70;92.10;;;;;;6192557;28;20038;-83
2022/02/25 05:03:32;;;;;;;9.43;1.38;;;3.80;92.20;;;;;;6192221;28;20417;-83
2022/02/25 05:06:34;;;;;;;6.32;1.58;;;3.70;91.90;;;;;;6192238;28;20051;-82
2022/02/25 05:09:37;;;;;;;9.00;1.63;;;3.70;92.10;;;;;;6192203;28;20051;-82
2022/02/25 05:12:40;;;;;;;9.65;1.73;;;3.70;92.10;;;;;;6191534;28;20047;-82
2022/02/25 05:22:20;;;;;;;6.97;1.05;;;3.70;92.10;;;;;;6190270;28;20070;-82
2022/02/25 05:25:25;;;;;;;8.60;1.33;;;3.70;92.10;;;;;;6190802;28;20054;-83
2022/02/25 05:28:26;;;;;;;7.50;1.35;;;3.70;92.20;;;;;;6190001;28;20097;-83
2022/02/25 05:31:28;;;;;;;5.18;0.55;;;3.70;92.10;;;;;;6190057;28;20090;-82
2022/02/25 05:34:30;;;;;;;8.85;1.20;;;3.60;92.00;;;;;;6189622;28;20314;-81
2022/02/25 05:37:32;;;;;;;4.57;2.00;;;3.70;92.10;;;;;;6189876;28;20051;-83
2022/02/25 05:40:35;;;;;;;9.98;1.58;;;3.70;92.00;;;;;;6189258;28;20453;-82
2022/02/25 05:43:37;;;;;;;11.20;1.27;;;3.60;92.00;;;;;;6189822;28;20137;-83
2022/02/25 05:46:38;;;;;;;11.55;1.63;;;3.60;92.00;;;;;;6188019;28;20050;-81
2022/02/25 05:49:40;;;;;;;11.88;1.58;;;3.60;92.10;;;;;;6185269;28;20053;-81
2022/02/25 05:52:42;;;;;;;11.18;1.25;;;3.70;92.10;;;;;;6186251;28;20385;-82
2022/02/25 05:55:46;;;;;;;10.23;1.60;;;3.70;92.00;;;;;;6185299;28;20054;-82
2022/02/25 05:58:47;;;;;;;9.02;1.20;;;3.60;91.80;;;;;;6183511;28;20106;-83
2022/02/25 06:01:49;;;;;;;6.43;1.45;;;3.70;91.90;;;;;;6182824;28;20047;-82
2022/02/25 06:04:51;;;;;;;4.80;1.33;;;3.60;91.80;;;;;;6184491;28;20555;-82
2022/02/25 06:07:53;;;;;;;6.28;0.90;;;3.60;92.00;;;;;;6185409;28;20046;-82
2022/02/25 06:10:56;;;;;;;9.32;1.27;;;3.70;91.90;;;;;;6185360;28;20042;-81
2022/02/25 06:13:58;;;;;;;6.78;1.45;;;3.60;91.80;;;;;;6187238;28;20107;-82
2022/02/25 06:17:00;;;;;;;4.60;1.58;;;3.60;91.90;;;;;;6182990;28;20054;-82
2022/02/25 06:20:02;;;;;;;10.10;1.25;;;3.60;91.90;;;;;;6183425;28;20070;-82
2022/02/25 06:23:05;;;;;;;4.43;1.30;;;3.60;92.00;;;;;;6184466;28;20047;-81
2022/02/25 06:26:09;;;;;;;5.05;1.17;;;3.60;92.00;;;;;;6184281;28;20053;-82
2022/02/25 06:29:12;;;;;;;7.70;1.15;;;3.60;92.10;;;;;;6184243;28;20051;-82
2022/02/25 06:32:14;;;;;;;12.30;1.23;;;3.60;92.10;;;;;;6185230;28;20054;-82
2022/02/25 06:35:15;;;;;;;5.15;1.35;;;3.70;92.00;;;;;;6184730;28;20129;-82
2022/02/25 06:38:17;;;;;;;10.27;1.95;;;3.70;92.00;;;;;;6184938;28;20052;-82
2022/02/25 06:41:20;;;;;;;6.93;1.23;;;3.80;91.80;;;;;;6185850;28;20093;-82
2022/02/25 06:44:22;;;;;;;7.35;1.38;;;3.80;91.80;;;;;;6183515;28;20098;-83
2022/02/25 06:47:24;;;;;;;6.07;0.98;;;3.90;91.70;;;;;;6181677;28;20415;-81
2022/02/25 06:50:26;;;;;;;8.27;1.52;;;3.90;91.60;;;;;;6183840;28;20051;-82
2022/02/25 06:53:27;;;;;;;5.85;0.95;;;4.10;91.50;;;;;;6181593;28;20540;-82
2022/02/25 06:56:31;;;;;;;11.30;1.52;;;4.10;91.20;;;;;;6180527;28;20051;-82
2022/02/25 06:59:33;;;;;;;6.53;0.82;;;4.10;91.30;;;;;;6185335;28;20051;-81
2022/02/25 07:02:35;;;;;;;2.35;0.85;;;4.20;91.10;;;;;;6186615;28;20114;-81
2022/02/25 07:05:39;;;;;;;8.68;1.90;;;4.20;91.10;;;;;;6184570;28;20062;-82
2022/02/25 07:08:40;;;;;;;9.73;1.08;;;4.30;91.30;;;;;;6185658;28;20070;-82
2022/02/25 07:11:44;;;;;;;13.82;2.00;;;4.40;91.50;;;;;;6185587;28;20430;-82
2022/02/25 07:14:46;;;;;;;12.95;1.90;;;4.60;90.70;;;;;;6184490;28;20106;-81
2022/02/25 07:17:47;;;;;;;6.68;0.88;;;4.70;90.60;;;;;;6181513;28;20075;-81
2022/02/25 07:20:49;;;;;;;13.85;1.25;;;4.80;90.40;;;;;;6181557;28;20102;-82
2022/02/25 07:23:51;;;;;;;12.30;2.22;;;5.00;90.20;;;;;;6184881;28;20123;-82
2022/02/25 07:26:54;;;;;;;7.00;1.67;;;5.30;90.00;;;;;;6183913;28;20051;-82
2022/02/25 07:29:56;;;;;;;9.30;1.25;;;5.60;88.50;;;;;;6184424;28;20057;-82
2022/02/25 07:32:58;;;;;;;6.18;0.95;;;5.80;87.20;;;;;;6184334;28;20093;-83
2022/02/25 07:36:00;;;;;;;8.65;1.33;;;6.00;85.70;;;;;;6182384;28;20078;-81
2022/02/25 07:39:02;;;;;;;3.83;0.98;;;6.10;85.60;;;;;;6184520;28;20131;-82
2022/02/25 07:42:05;;;;;;;9.50;0.98;;;6.30;84.70;;;;;;6183770;28;20042;-82
2022/02/25 07:45:08;;;;;;;7.90;2.88;;;6.60;84.80;;;;;;6182816;28;20457;-82
2022/02/25 07:48:11;;;;;;;2.92;0.82;;;6.70;84.30;;;;;;6184679;28;20039;-81
2022/02/25 07:51:13;;;;;;;6.50;1.58;;;6.80;83.00;;;;;;6184025;28;20521;-82
2022/02/25 07:54:15;;;;;;;5.93;1.23;;;7.10;82.70;;;;;;6183424;28;20114;-82
2022/02/25 07:57:18;;;;;;;4.88;1.27;;;7.30;80.90;;;;;;6183414;28;20508;-83
2022/02/25 08:00:20;;;;;;;9.68;1.48;;;7.50;79.80;;;;;;6188046;28;20054;-82
2022/02/25 08:03:22;;;;;;;11.50;1.80;;;7.50;79.40;;;;;;6191942;28;20051;-82
2022/02/25 08:06:23;;;;;;;2.28;1.05;;;7.60;77.80;;;;;;6190628;28;20570;-82
2022/02/25 08:09:25;;;;;;;8.40;1.13;;;7.70;78.30;;;;;;6189701;28;20066;-82
2022/02/25 08:12:28;;;;;;;11.57;1.30;;;7.70;78.10;;;;;;6190028;28;20106;-81
2022/02/25 08:15:33;;;;;;;6.43;1.60;;;7.90;77.20;;;;;;6189766;28;20133;-81
2022/02/25 08:18:35;;;;;;;8.48;2.30;;;8.10;76.90;;;;;;6189923;28;20100;-83
2022/02/25 08:21:37;;;;;;;3.70;1.00;;;8.40;76.20;;;;;;6190250;28;20125;-82
2022/02/25 08:24:39;;;;;;;12.98;1.40;;;8.60;75.70;;;;;;6190131;28;20102;-82
2022/02/25 08:27:43;;;;;;;11.52;1.58;;;8.90;73.70;;;;;;6190224;28;20233;-82
2022/02/25 08:30:46;;;;;;;8.07;1.63;;;8.80;73.00;;;;;;6191600;28;20065;-84
2022/02/25 08:33:48;;;;;;;13.43;1.48;;;8.90;72.60;;;;;;6192476;28;20057;-82
2022/02/25 08:36:50;;;;;;;7.25;1.00;;;9.30;72.00;;;;;;6186306;28;20121;-79
2022/02/25 08:39:51;;;;;;;5.15;2.65;;;9.80;68.90;;;;;;6181543;28;20066;-80
2022/02/25 08:42:55;;;;;;;12.13;1.77;;;10.30;67.50;;;;;;6190706;28;20055;-82
2022/02/25 08:45:57;;;;;;;10.70;1.45;;;11.10;65.70;;;;;;6190133;28;20501;-81
2022/02/25 08:48:59;;;;;;;15.02;1.98;;;11.80;61.60;;;;;;6190850;28;20070;-81
2022/02/25 08:52:00;;;;;;;6.35;1.60;;;12.40;60.00;;;;;;6182737;28;20047;-79
2022/02/25 08:55:02;;;;;;;4.30;1.08;;;13.10;58.50;;;;;;6177880;28;20190;-80
2022/02/25 08:58:05;;;;;;;11.13;1.58;;;13.40;55.10;;;;;;6180879;28;20047;-80
2022/02/25 09:01:07;;;;;;;3.83;1.17;;;13.60;55.60;;;;;;6188845;28;20051;-80
2022/02/25 09:04:09;;;;;;;8.57;2.38;;;14.10;54.30;;;;;;6187416;28;20042;-80
2022/02/25 09:07:11;;;;;;;6.88;1.13;;;14.40;51.60;;;;;;6187840;28;20531;-81
2022/02/25 09:10:15;;;;;;;6.93;1.13;;;14.70;52.00;;;;;;6187754;28;20051;-81
2022/02/25 09:13:18;;;;;;;10.10;1.38;;;15.10;50.60;;;;;;6185337;28;20061;-80
2022/02/25 09:16:20;;;;;;;12.15;1.38;;;15.40;48.60;;;;;;6186678;28;20051;-80
2022/02/25 09:19:22;;;;;;;13.35;1.52;;;15.70;49.00;;;;;;6187353;28;20138;-81
2022/02/25 09:22:24;;;;;;;3.85;1.40;;;15.90;46.90;;;;;;6187790;28;20058;-80
2022/02/25 09:25:26;;;;;;;6.03;1.13;;;15.90;45.90;;;;;;6162170;28;20436;-80
2022/02/25 09:28:29;;;;;;;6.25;1.20;;;15.60;46.60;;;;;;6187779;28;20042;-80
2022/02/25 09:31:31;;;;;;;9.02;1.35;;;15.00;46.60;;;;;;6189433;28;20050;-82
2022/02/25 09:34:37;;;;;;;13.50;1.90;;;14.50;48.50;;;;;;6187559;28;20113;-83
2022/02/25 09:37:40;;;;;;;5.63;1.05;;;13.60;49.50;;;;;;6161075;28;20054;-79
2022/02/25 09:40:41;;;;;;;7.18;1.30;;;13.00;51.60;;;;;;6172417;28;20059;-78
2022/02/25 09:43:45;;;;;;;11.73;1.70;;;12.90;51.80;;;;;;6183545;28;20050;-79
2022/02/25 09:46:47;;;;;;;12.18;1.58;;;12.50;53.30;;;;;;6181594;28;20046;-80
2022/02/25 09:49:49;;;;;;;11.90;2.42;;;12.20;54.40;;;;;;6183346;28;20058;-78
2022/02/25 09:52:51;;;;;;;4.90;1.20;;;11.90;55.30;;;;;;6178430;28;20452;-79
2022/02/25 09:55:53;;;;;;;10.23;1.45;;;11.60;56.30;;;;;;6179092;28;20134;-79
2022/02/25 09:59:00;;;;;;;2.72;0.98;;;11.50;56.40;;;;;;6179639;28;20084;-82
2022/02/25 10:02:03;;;;;;;9.75;1.27;;;11.70;56.60;;;;;;6185093;28;20412;-79
2022/02/25 10:05:09;;;;;;;16.83;1.58;;;11.90;56.30;;;;;;6197660;28;20046;-79
2022/02/25 10:08:13;;;;;;;7.00;0.90;;;12.30;55.50;;;;;;6208635;28;20057;-80
2022/02/25 10:11:15;;;;;;;5.50;1.17;;;12.40;54.60;;;;;;6212537;28;20117;-80
2022/02/25 10:14:19;;;;;;;5.88;1.13;;;12.00;55.70;;;;;;6205674;28;20078;-78
2022/02/25 10:17:22;;;;;;;4.85;1.25;;;11.70;56.50;;;;;;6207339;28;20050;-79
2022/02/25 10:20:27;;;;;;;7.63;1.42;;;11.40;57.70;;;;;;6206723;28;20054;-79
2022/02/25 10:23:30;;;;;;;5.05;1.80;;;11.30;57.60;;;;;;6210184;28;20504;-80
2022/02/25 10:26:37;;;;;;;5.43;1.20;;;11.10;58.50;;;;;;6208182;28;20046;-82
2022/02/25 10:29:53;;;;;;;4.97;1.40;;;10.80;60.00;;;;;;6207653;28;20086;-79
2022/02/25 10:32:56;;;;;;;5.50;1.20;;;10.60;59.90;;;;;;6204678;28;20038;-83
2022/02/25 10:35:58;;;;;;;7.03;1.23;;;10.40;60.00;;;;;;6198659;28;20069;-79
2022/02/25 10:39:01;;;;;;;11.55;1.70;;;10.80;60.90;;;;;;6206619;28;20056;-79
2022/02/25 10:42:06;;;;;;;7.68;1.20;;;11.30;59.80;;;;;;6209900;28;20046;-80
2022/02/25 10:45:10;;;;;;;10.38;1.08;;;11.40;58.20;;;;;;6208829;28;20085;-80
2022/02/25 10:48:14;;;;;;;9.05;1.90;;;11.50;57.70;;;;;;6206415;28;20057;-80
2022/02/25 10:51:24;;;;;;;14.85;2.38;;;11.40;58.10;;;;;;6205478;28;20073;-79
2022/02/25 10:54:39;;;;;;;6.25;1.45;;;11.50;57.60;;;;;;6181762;28;20063;-78
2022/02/25 10:57:41;;;;;;;7.32;1.48;;;11.50;56.70;;;;;;6185466;28;20158;-80
2022/02/25 11:00:44;;;;;;;7.43;1.10;;;11.50;57.50;;;;;;6182197;28;20055;-80
2022/02/25 11:04:02;;;;;;;5.15;1.27;;;12.10;57.10;;;;;;6189703;28;20121;-80
2022/02/25 11:07:04;;;;;;;3.97;1.35;;;12.80;54.40;;;;;;6203159;28;20419;-79
2022/02/25 11:10:10;;;;;;;9.40;0.98;;;13.00;53.30;;;;;;6212304;28;20189;-80
2022/02/25 11:13:15;;;;;;;5.05;0.75;;;12.80;52.70;;;;;;6209476;28;20049;-80
2022/02/25 11:16:19;;;;;;;7.90;1.23;;;12.50;54.10;;;;;;6207193;28;20046;-81
2022/02/25 11:19:23;;;;;;;6.82;1.05;;;12.30;54.50;;;;;;6207833;28;20060;-80
2022/02/25 11:22:27;;;;;;;6.50;0.95;;;12.00;55.60;;;;;;6209911;28;20759;-81
2022/02/25 11:25:29;;;;;;;9.02;1.30;;;11.90;56.80;;;;;;6207052;28;20054;-80
2022/02/25 11:28:31;;;;;;;6.88;1.27;;;11.90;56.50;;;;;;6204661;28;20074;-81
2022/02/25 11:31:37;;;;;;;6.15;1.40;;;11.80;56.00;;;;;;6207772;28;20059;-80
2022/02/25 11:34:40;;;;;;;9.13;1.15;;;11.60;56.60;;;;;;6198024;28;20078;-82
2022/02/25 11:37:43;;;;;;;5.88;1.02;;;11.30;57.00;;;;;;6216656;28;20070;-81
2022/02/25 11:40:52;;;;;;;5.03;1.17;;;11.10;58.30;;;;;;6204210;28;20051;-82
2022/02/25 11:43:55;;;;;;;12.20;1.55;;;10.90;59.20;;;;;;6165328;28;20055;-81
2022/02/25 11:46:59;;;;;;;5.93;1.20;;;10.80;59.90;;;;;;6170276;28;20043;-86
2022/02/25 11:50:01;;;;;;;5.38;1.88;;;11.10;60.10;;;;;;6194391;28;20441;-85
2022/02/25 11:53:17;;;;;;;8.32;1.52;;;11.60;59.30;;;;;;6188858;28;20070;-80
2022/02/25 11:56:20;;;;;;;7.75;1.40;;;12.20;57.90;;;;;;6187025;28;20125;-79
2022/02/25 11:59:22;;;;;;;6.28;1.15;;;12.50;55.50;;;;;;6188890;28;20046;-82
2022/02/25 12:02:30;;;;;;;5.43;1.30;;;12.90;54.80;;;;;;6191772;28;20613;-81
2022/02/25 12:05:37;;;;;;;4.40;1.08;;;13.00;53.20;;;;;;6205919;28;20050;-80
2022/02/25 12:08:39;;;;;;;5.50;0.75;;;12.80;52.70;;;;;;6215170;28;20538;-81
2022/02/25 12:11:41;;;;;;;7.88;1.17;;;12.50;53.40;;;;;;6209990;28;20066;-80
2022/02/25 12:14:59;;;;;;;6.43;1.02;;;12.00;53.40;;;;;;6210777;28;20046;-82
2022/02/25 12:18:05;;;;;;;11.25;2.58;;;11.70;54.70;;;;;;6211075;28;20136;-81
2022/02/25 12:21:11;;;;;;;10.43;1.35;;;11.30;55.30;;;;;;6211766;28;20141;-81
2022/02/25 12:24:17;;;;;;;13.52;1.20;;;11.10;55.00;;;;;;6208791;28;20050;-81
2022/02/25 12:27:30;;;;;;;1.58;0.70;;;10.80;55.70;;;;;;6207798;28;20046;-81
2022/02/25 12:30:38;;;;;;;3.95;0.98;;;10.60;56.20;;;;;;6213513;28;20072;-80
2022/02/25 12:33:54;;;;;;;7.68;1.15;;;10.40;57.50;;;;;;6205689;28;20536;-80
2022/02/25 12:36:56;;;;;;;7.50;1.52;;;10.30;58.30;;;;;;6209215;28;20082;-82
2022/02/25 12:40:04;;;;;;;12.13;2.97;;;10.20;58.60;;;;;;6212888;28;20046;-81
2022/02/25 12:43:07;;;;;;;7.32;1.77;;;10.20;59.50;;;;;;6210948;28;20195;-80
2022/02/25 12:46:09;;;;;;;22.17;10.23;;;10.10;59.30;;;;;;6211015;28;20113;-82
2022/02/25 12:49:15;;;;;;;49.92;24.27;;;10.10;59.70;;;;;;6213556;28;20053;-83
2022/02/25 12:52:16;;;;;;;78.03;34.30;;;10.00;60.10;;;;;;6210300;28;20046;-81
2022/02/25 12:55:19;;;;;;;12.73;3.80;;;9.90;61.20;;;;;;6199453;28;20556;-81
2022/02/25 12:58:32;;;;;;;12.73;4.15;;;9.90;62.00;;;;;;6191984;28;20513;-81
2022/02/25 13:01:36;;;;;;;7.25;1.50;;;9.90;62.90;;;;;;6193055;28;20469;-82
2022/02/25 13:04:44;;;;;;;5.13;1.25;;;10.00;63.10;;;;;;6194252;28;20122;-80
2022/02/25 13:07:55;;;;;;;7.85;2.25;;;10.10;63.40;;;;;;6161050;28;20051;-81
2022/02/25 13:10:58;;;;;;;7.32;0.98;;;10.10;63.90;;;;;;6160548;28;20102;-81
2022/02/25 13:14:14;;;;;;;10.88;2.78;;;10.30;63.80;;;;;;6164583;28;20056;-80
2022/02/25 13:17:18;;;;;;;6.32;2.05;;;10.50;63.70;;;;;;6161497;28;20141;-81
2022/02/25 13:20:22;;;;;;;9.35;3.40;;;10.50;62.60;;;;;;6163699;28;20421;-82
2022/02/25 13:23:24;;;;;;;6.65;1.40;;;10.50;62.40;;;;;;6163592;28;20071;-81
2022/02/25 13:26:25;;;;;;;4.25;1.42;;;10.50;62.40;;;;;;6163393;28;20051;-81
2022/02/25 13:29:28;;;;;;;7.03;1.20;;;10.60;62.30;;;;;;6163320;29;20111;-80
2022/02/25 13:32:29;;;;;;;9.25;1.40;;;10.50;62.30;;;;;;6165839;28;20054;-82
2022/02/25 13:35:35;;;;;;;6.28;1.15;;;10.30;62.70;;;;;;6196752;28;20097;-84
2022/02/25 13:38:39;;;;;;;4.97;2.40;;;10.10;63.30;;;;;;6187080;28;20525;-80
2022/02/25 13:41:41;;;;;;;10.38;1.35;;;10.00;64.20;;;;;;6185932;28;20512;-80
2022/02/25 13:44:44;;;;;;;2.60;1.05;;;9.90;65.30;;;;;;6186231;28;20047;-83
2022/02/25 13:54:38;;;;;;;36.15;18.58;;;9.80;67.50;;;;;;6171511;28;20584;-81
2022/02/25 13:57:42;;;;;;;12.95;3.00;;;9.90;67.60;;;;;;6175020;28;20061;-80
2022/02/25 14:00:47;;;;;;;3.58;1.75;;;10.20;66.90;;;;;;6186776;28;20047;-81
2022/02/25 14:03:49;;;;;;;4.82;1.02;;;10.30;65.30;;;;;;6187719;28;20567;-83
2022/02/25 14:06:55;;;;;;;8.45;1.15;;;10.30;65.30;;;;;;6199104;28;20047;-83
2022/02/25 14:09:57;;;;;;;4.75;0.80;;;10.10;65.60;;;;;;6205170;28;20056;-81
2022/02/25 14:13:00;;;;;;;10.93;1.55;;;10.20;66.30;;;;;;6205475;28;20184;-82
2022/02/25 14:16:01;;;;;;;3.42;0.90;;;10.30;65.90;;;;;;6204811;28;20126;-82
2022/02/25 14:19:17;;;;;;;13.82;2.97;;;10.30;66.40;;;;;;6203527;28;20113;-84
2022/02/25 14:22:20;;;;;;;6.63;0.80;;;10.20;66.00;;;;;;6203808;28;20057;-82
2022/02/25 14:25:29;;;;;;;6.88;2.65;;;10.10;66.50;;;;;;6204888;28;20101;-81
2022/02/25 14:28:35;;;;;;;18.75;4.00;;;10.20;66.90;;;;;;6218682;28;20048;-82
2022/02/25 14:31:36;;;;;;;9.05;2.53;;;10.10;67.20;;;;;;6205040;28;20050;-81
2022/02/25 14:34:40;;;;;;;9.18;2.75;;;10.00;67.40;;;;;;6192369;28;20069;-81
2022/02/25 14:37:43;;;;;;;12.55;2.95;;;10.10;67.20;;;;;;6156536;28;20047;-83
2022/02/25 14:40:47;;;;;;;6.13;1.05;;;10.20;67.50;;;;;;6156314;28;20047;-83
2022/02/25 14:43:50;;;;;;;17.40;6.78;;;10.50;67.20;;;;;;6158779;28;20098;-83
2022/02/25 14:46:51;;;;;;;26.58;8.60;;;10.80;64.90;;;;;;6161185;28;20050;-83
2022/02/25 14:49:53;;;;;;;16.58;4.03;;;11.10;63.40;;;;;;6158427;28;20130;-84
2022/02/25 14:52:58;;;;;;;7.72;1.30;;;11.40;63.00;;;;;;6159175;28;20058;-82
2022/02/25 14:56:00;;;;;;;9.07;1.15;;;11.60;61.20;;;;;;6163507;28;20049;-83
2022/02/25 14:59:01;;;;;;;5.43;1.23;;;11.60;61.10;;;;;;6192412;28;20111;-83
2022/02/25 15:02:05;;;;;;;4.85;1.00;;;11.60;60.90;;;;;;6185416;28;20050;-82
2022/02/25 15:05:07;;;;;;;7.05;1.20;;;11.50;60.50;;;;;;6195589;28;20050;-83
2022/02/25 15:08:11;;;;;;;7.55;0.90;;;11.50;60.00;;;;;;6183133;28;20062;-83
2022/02/25 15:11:13;;;;;;;12.73;1.83;;;11.50;58.80;;;;;;6183134;28;20058;-84
2022/02/25 15:14:17;;;;;;;6.65;1.05;;;11.30;58.70;;;;;;6184357;28;20098;-83
2022/02/25 15:17:19;;;;;;;6.10;0.95;;;11.20;58.30;;;;;;6181471;28;20050;-84
2022/02/25 15:20:21;;;;;;;10.27;2.60;;;11.20;58.80;;;;;;6181687;28;20134;-83
2022/02/25 15:23:24;;;;;;;12.38;1.67;;;11.30;58.90;;;;;;6181215;28;20476;-83
2022/02/25 15:26:26;;;;;;;4.78;0.88;;;11.60;60.00;;;;;;6180459;28;20138;-83
2022/02/25 15:29:28;;;;;;;10.18;2.28;;;11.70;58.50;;;;;;6181373;28;20606;-83
2022/02/25 15:32:30;;;;;;;84.25;36.40;;;11.60;57.90;;;;;;6177872;28;20091;-83
2022/02/25 15:35:32;;;;;;;100.80;46.70;;;11.60;57.40;;;;;;6193331;28;20054;-82
2022/02/25 15:38:35;;;;;;;14.70;4.25;;;11.40;57.40;;;;;;6180084;28;20047;-82
2022/02/25 15:41:37;;;;;;;55.90;26.02;;;11.30;57.90;;;;;;6189925;28;20046;-81
2022/02/25 15:44:38;;;;;;;24.27;9.93;;;11.20;57.40;;;;;;6179405;28;20102;-81
2022/02/25 15:47:40;;;;;;;26.75;13.18;;;11.20;56.90;;;;;;6178805;28;20047;-81
2022/02/25 15:50:43;;;;;;;13.77;5.28;;;11.10;57.40;;;;;;6178082;28;20047;-81
2022/02/25 16:22:32;;;;;;;10.13;1.27;;;9.80;65.60;;;;;;6015223;29;20420;-82
2022/02/25 16:26:17;;;;;;;4.78;1.10;;;9.50;67.00;;;;;;6082084;29;20120;-82
2022/02/25 16:41:49;;;;;;;5.85;2.00;;;8.90;67.20;;;;;;6039925;29;20056;-82
2022/02/25 16:45:34;;;;;;;6.43;1.13;;;8.90;67.00;;;;;;6009781;29;20736;-81
2022/02/25 17:19:27;;;;;;;9.20;3.95;;;7.90;75.40;;;;;;6198209;28;20401;-80
2022/02/25 17:53:13;;;;;;;105.88;42.25;;;7.90;82.80;;;;;;6152777;28;20398;-81
2022/02/25 17:56:57;;;;;;;4.70;2.05;;;8.00;83.00;;;;;;6143036;28;20711;-81